createdAt,value
2019-03-30T00:02:02.483Z,84.02
2019-03-30T00:04:32.358Z,83.91
2019-03-30T00:07:02.273Z,84.02
2019-03-30T00:09:32.141Z,84.03
2019-03-30T00:12:02.177Z,83.25
2019-03-30T00:14:32.032Z,83.09
2019-03-30T00:17:01.980Z,82.77
2019-03-30T00:19:35.174Z,82.81
2019-03-30T00:22:03.476Z,83.06
2019-03-30T00:24:33.435Z,83.10
2019-03-30T00:27:03.256Z,83.70
2019-03-30T00:29:33.029Z,84.22
2019-03-30T00:32:02.886Z,85.18
2019-03-30T00:34:32.798Z,85.47
2019-03-30T00:37:02.649Z,86.18
2019-03-30T00:39:32.576Z,86.24
2019-03-30T00:42:02.435Z,86.25
2019-03-30T00:44:32.216Z,86.37
2019-03-30T00:47:02.096Z,86.33
2019-03-30T00:49:31.894Z,86.90
2019-03-30T00:52:01.803Z,86.99
2019-03-30T00:54:31.848Z,87.51
2019-03-30T00:57:01.723Z,87.50
2019-03-30T00:59:31.676Z,87.68
2019-03-30T01:02:01.629Z,87.61
2019-03-30T01:04:31.493Z,87.50
2019-03-30T01:07:01.361Z,87.83
2019-03-30T01:09:31.241Z,87.78
2019-03-30T01:12:01.097Z,87.92
2019-03-30T01:14:30.994Z,88.03
2019-03-30T01:17:01.058Z,88.33
2019-03-30T01:19:30.937Z,88.46
2019-03-30T01:22:00.768Z,88.82
2019-03-30T01:24:30.802Z,89.50
2019-03-30T01:27:00.614Z,89.59
2019-03-30T01:29:30.445Z,89.33
2019-03-30T01:32:00.446Z,89.36
2019-03-30T01:34:30.296Z,89.42
2019-03-30T01:37:00.129Z,89.33
2019-03-30T01:39:30.059Z,89.28
2019-03-30T01:41:59.867Z,89.22
2019-03-30T01:44:29.818Z,88.84
2019-03-30T01:47:00.002Z,88.82
2019-03-30T01:49:29.904Z,88.60
2019-03-30T01:51:59.703Z,88.61
2019-03-30T01:54:29.733Z,88.51
2019-03-30T01:56:59.518Z,88.57
2019-03-30T01:59:29.334Z,88.46
2019-03-30T02:01:59.436Z,88.58
2019-03-30T02:04:29.275Z,88.91
2019-03-30T02:06:59.113Z,88.87
2019-03-30T02:09:29.256Z,88.87
2019-03-30T02:11:59.164Z,88.94
2019-03-30T02:14:28.971Z,89.00
2019-03-30T02:16:58.985Z,89.37
2019-03-30T02:19:28.910Z,88.69
2019-03-30T02:21:58.783Z,89.49
2019-03-30T02:24:28.820Z,89.21
2019-03-30T02:26:58.708Z,89.28
2019-03-30T02:29:28.552Z,89.94
2019-03-30T02:31:58.511Z,90.09
2019-03-30T02:34:28.328Z,90.02
2019-03-30T02:36:58.096Z,90.40
2019-03-30T02:39:28.158Z,90.94
2019-03-30T02:41:58.024Z,91.54
2019-03-30T02:44:27.881Z,91.48
2019-03-30T02:46:57.949Z,91.54
2019-03-30T02:49:27.858Z,92.07
2019-03-30T02:51:57.706Z,92.19
2019-03-30T02:54:27.764Z,92.22
2019-03-30T02:56:57.600Z,92.30
2019-03-30T02:59:27.486Z,91.95
2019-03-30T03:01:57.529Z,91.93
2019-03-30T03:04:27.350Z,92.11
2019-03-30T03:06:57.105Z,91.96
2019-03-30T03:09:26.947Z,92.26
2019-03-30T03:11:56.827Z,92.36
2019-03-30T03:14:26.713Z,91.96
2019-03-30T03:16:56.789Z,91.80
2019-03-30T03:19:26.663Z,91.98
2019-03-30T03:21:56.447Z,91.78
2019-03-30T03:24:26.339Z,92.23
2019-03-30T03:26:56.176Z,92.33
2019-03-30T03:29:25.971Z,92.36
2019-03-30T03:31:55.951Z,92.42
2019-03-30T03:34:25.899Z,92.27
2019-03-30T03:36:55.747Z,92.21
2019-03-30T03:39:25.891Z,92.12
2019-03-30T03:41:55.733Z,92.17
2019-03-30T03:44:25.580Z,92.24
2019-03-30T03:46:55.434Z,92.33
2019-03-30T03:49:25.268Z,92.52
2019-03-30T03:51:55.267Z,92.50
2019-03-30T03:54:25.273Z,92.34
2019-03-30T03:56:56.280Z,92.24
2019-03-30T03:59:28.131Z,92.23
2019-03-30T04:01:59.575Z,92.25
2019-03-30T04:04:30.483Z,92.39
2019-03-30T04:07:02.787Z,92.34
2019-03-30T04:09:35.134Z,91.94
2019-03-30T04:12:07.953Z,92.03
2019-03-30T04:14:40.802Z,92.05
2019-03-30T04:17:10.633Z,91.95
2019-03-30T04:19:40.704Z,92.22
2019-03-30T04:22:10.547Z,92.66
2019-03-30T04:24:40.496Z,92.71
2019-03-30T04:27:10.425Z,92.82
2019-03-30T04:29:40.469Z,92.71
2019-03-30T04:32:10.262Z,92.90
2019-03-30T04:34:40.133Z,93.05
2019-03-30T04:37:10.033Z,93.10
2019-03-30T04:39:39.842Z,93.29
2019-03-30T04:42:09.757Z,93.35
2019-03-30T04:44:39.637Z,93.33
2019-03-30T04:47:09.475Z,93.87
2019-03-30T04:49:39.430Z,93.71
2019-03-30T04:52:09.276Z,93.83
2019-03-30T04:54:39.080Z,94.21
2019-03-30T04:57:08.949Z,94.26
2019-03-30T04:59:38.873Z,94.34
2019-03-30T05:02:08.691Z,94.64
2019-03-30T05:04:38.616Z,94.62
2019-03-30T05:07:08.623Z,94.58
2019-03-30T05:09:38.498Z,94.51
2019-03-30T05:12:08.335Z,94.20
2019-03-30T05:14:38.381Z,94.11
2019-03-30T05:17:08.491Z,93.98
2019-03-30T05:19:38.352Z,94.77
2019-03-30T05:22:12.759Z,95.86
2019-03-30T05:24:39.888Z,95.46
2019-03-30T05:27:10.078Z,95.44
2019-03-30T05:29:40.038Z,94.52
2019-03-30T05:32:09.894Z,90.10
2019-03-30T05:34:39.911Z,89.60
2019-03-30T05:37:09.754Z,89.01
2019-03-30T05:39:39.665Z,85.70
2019-03-30T05:42:09.795Z,83.97
2019-03-30T05:44:39.588Z,86.52
2019-03-30T05:47:09.385Z,84.07
2019-03-30T05:49:39.478Z,80.32
2019-03-30T05:52:09.379Z,77.25
2019-03-30T05:54:39.216Z,75.68
2019-03-30T05:57:09.304Z,73.40
2019-03-30T05:59:39.155Z,71.89
2019-03-30T06:02:09.019Z,70.56
2019-03-30T06:04:39.078Z,69.71
2019-03-30T06:07:08.881Z,66.97
2019-03-30T06:09:38.730Z,61.83
2019-03-30T06:12:08.710Z,59.31
2019-03-30T06:14:38.619Z,56.12
2019-03-30T06:17:08.556Z,53.06
2019-03-30T06:19:38.605Z,50.63
2019-03-30T06:22:08.455Z,48.86
2019-03-30T06:24:38.296Z,47.70
2019-03-30T06:27:08.314Z,45.90
2019-03-30T06:29:38.149Z,45.25
2019-03-30T06:32:08.072Z,44.15
2019-03-30T06:34:38.199Z,46.04
2019-03-30T06:37:08.087Z,44.19
2019-03-30T06:39:38.048Z,42.77
2019-03-30T06:42:08.010Z,41.83
2019-03-30T06:44:37.841Z,42.69
2019-03-30T06:47:07.752Z,43.52
2019-03-30T06:49:37.700Z,43.16
2019-03-30T06:52:07.723Z,42.18
2019-03-30T06:54:37.582Z,41.01
2019-03-30T06:57:07.418Z,40.46
2019-03-30T06:59:37.253Z,39.35
2019-03-30T07:02:09.336Z,38.48
2019-03-30T07:04:39.320Z,39.31
2019-03-30T07:07:10.233Z,39.07
2019-03-30T07:09:41.237Z,40.05
2019-03-30T07:12:11.395Z,37.21
2019-03-30T07:14:43.380Z,36.33
2019-03-30T07:17:14.331Z,35.09
2019-03-30T07:19:47.318Z,35.30
2019-03-30T07:22:17.408Z,33.77
2019-03-30T07:24:47.334Z,33.77
2019-03-30T07:27:17.273Z,33.86
2019-03-30T07:29:47.320Z,33.91
2019-03-30T07:32:17.122Z,33.56
2019-03-30T07:34:46.980Z,33.68
2019-03-30T07:37:17.063Z,34.77
2019-03-30T07:39:46.966Z,36.64
2019-03-30T07:42:16.894Z,36.47
2019-03-30T07:44:47.010Z,36.81
2019-03-30T07:47:16.861Z,37.15
2019-03-30T07:49:46.785Z,35.43
2019-03-30T07:52:16.919Z,34.60
2019-03-30T07:54:46.744Z,36.62
2019-03-30T07:57:17.481Z,39.52
2019-03-30T07:59:47.527Z,40.78
2019-03-30T08:02:17.371Z,38.64
2019-03-30T08:04:47.346Z,36.16
2019-03-30T08:07:17.414Z,33.84
2019-03-30T08:09:47.396Z,33.33
2019-03-30T08:12:17.277Z,34.28
2019-03-30T08:14:49.407Z,33.27
2019-03-30T08:17:19.343Z,34.28
2019-03-30T08:19:50.471Z,34.61
2019-03-30T08:22:20.410Z,34.50
2019-03-30T08:24:50.306Z,35.04
2019-03-30T08:27:20.176Z,33.70
2019-03-30T08:29:50.163Z,31.93
2019-03-30T08:32:20.135Z,30.25
2019-03-30T08:34:50.058Z,29.07
2019-03-30T08:37:19.985Z,28.27
2019-03-30T08:39:49.918Z,29.56
2019-03-30T08:42:20.455Z,31.06
2019-03-30T08:44:50.691Z,32.01
2019-03-30T08:47:20.445Z,31.58
2019-03-30T08:49:50.338Z,30.97
2019-03-30T08:52:20.446Z,31.10
2019-03-30T08:54:50.268Z,30.30
2019-03-30T08:57:20.225Z,30.19
2019-03-30T08:59:50.271Z,31.40
2019-03-30T09:02:22.115Z,30.21
2019-03-30T09:04:52.055Z,32.07
2019-03-30T09:07:22.182Z,35.29
2019-03-30T09:09:52.095Z,34.78
2019-03-30T09:12:22.099Z,36.00
2019-03-30T09:14:51.981Z,34.84
2019-03-30T09:17:22.004Z,32.55
2019-03-30T09:19:52.152Z,31.99
2019-03-30T09:22:21.983Z,29.76
2019-03-30T09:24:51.867Z,28.56
2019-03-30T09:27:21.959Z,27.09
2019-03-30T09:29:51.773Z,26.48
2019-03-30T09:32:21.651Z,28.76
2019-03-30T09:34:51.829Z,27.62
2019-03-30T09:37:21.661Z,29.67
2019-03-30T09:39:51.564Z,28.59
2019-03-30T09:42:21.563Z,27.49
2019-03-30T09:44:51.468Z,27.05
2019-03-30T09:47:21.374Z,27.94
2019-03-30T09:49:51.374Z,29.46
2019-03-30T09:52:21.245Z,28.12
2019-03-30T09:54:51.121Z,28.27
2019-03-30T09:57:21.079Z,28.91
2019-03-30T09:59:50.912Z,32.51
2019-03-30T10:02:21.218Z,32.33
2019-03-30T10:04:51.384Z,31.48
2019-03-30T10:07:21.406Z,30.67
2019-03-30T10:09:51.295Z,31.04
2019-03-30T10:12:21.327Z,32.33
2019-03-30T10:14:51.139Z,30.77
2019-03-30T10:17:20.954Z,30.72
2019-03-30T10:20:03.648Z,30.72
2019-03-30T10:22:22.672Z,30.16
2019-03-30T10:24:52.632Z,28.80
2019-03-30T10:27:22.632Z,28.87
2019-03-30T10:29:52.604Z,28.59
2019-03-30T10:32:22.689Z,28.83
2019-03-30T10:34:52.528Z,31.16
2019-03-30T10:37:22.392Z,29.40
2019-03-30T10:39:52.482Z,28.23
2019-03-30T10:42:22.380Z,26.91
2019-03-30T10:44:52.276Z,27.75
2019-03-30T10:47:22.512Z,27.84
2019-03-30T10:49:52.418Z,26.66
2019-03-30T10:52:22.223Z,27.24
2019-03-30T10:54:53.298Z,26.92
2019-03-30T10:57:23.289Z,26.77
2019-03-30T10:59:53.439Z,26.08
2019-03-30T11:02:23.326Z,27.08
2019-03-30T11:04:53.267Z,26.59
2019-03-30T11:07:23.262Z,26.63
2019-03-30T11:09:53.063Z,26.55
2019-03-30T11:12:22.944Z,25.64
2019-03-30T11:14:53.026Z,26.42
2019-03-30T11:17:23.548Z,25.22
2019-03-30T11:19:53.969Z,25.09
2019-03-30T11:22:23.878Z,26.13
2019-03-30T11:25:06.539Z,27.01
2019-03-30T11:27:25.535Z,26.75
2019-03-30T11:29:55.393Z,27.49
2019-03-30T11:32:25.290Z,27.99
2019-03-30T11:34:55.384Z,31.40
2019-03-30T11:37:25.297Z,34.94
2019-03-30T11:39:55.142Z,38.87
2019-03-30T11:42:25.121Z,40.90
2019-03-30T11:44:54.969Z,42.34
2019-03-30T11:47:24.857Z,45.30
2019-03-30T11:49:54.879Z,46.25
2019-03-30T11:52:24.784Z,46.25
2019-03-30T11:54:54.768Z,46.44
2019-03-30T11:57:24.716Z,45.82
2019-03-30T11:59:54.669Z,46.43
2019-03-30T12:02:28.219Z,46.84
2019-03-30T12:04:56.259Z,46.85
2019-03-30T12:07:26.083Z,47.84
2019-03-30T12:09:55.959Z,47.19
2019-03-30T12:12:25.918Z,47.48
2019-03-30T12:14:55.759Z,48.26
2019-03-30T12:17:25.607Z,47.18
2019-03-30T12:19:55.537Z,46.85
2019-03-30T12:22:25.467Z,48.61
2019-03-30T12:24:55.367Z,48.32
2019-03-30T12:27:25.512Z,48.28
2019-03-30T12:29:55.461Z,48.54
2019-03-30T12:32:25.304Z,47.43
2019-03-30T12:34:55.356Z,48.29
2019-03-30T12:37:25.219Z,47.10
2019-03-30T12:39:58.089Z,48.14
2019-03-30T12:42:26.873Z,47.77
2019-03-30T12:44:56.818Z,47.42
2019-03-30T12:47:26.681Z,47.36
2019-03-30T12:49:56.678Z,48.04
2019-03-30T12:52:26.705Z,47.52
2019-03-30T12:54:56.547Z,48.20
2019-03-30T12:57:26.405Z,48.06
2019-03-30T12:59:59.127Z,48.42
2019-03-30T13:02:27.955Z,48.96
2019-03-30T13:04:57.893Z,49.21
2019-03-30T13:07:27.780Z,48.52
2019-03-30T13:09:57.741Z,48.42
2019-03-30T13:12:27.612Z,48.99
2019-03-30T13:14:57.392Z,48.35
2019-03-30T13:17:27.249Z,49.49
2019-03-30T13:19:57.127Z,48.11
2019-03-30T13:22:27.031Z,49.33
2019-03-30T13:24:56.891Z,49.18
2019-03-30T13:27:26.827Z,49.89
2019-03-30T13:29:56.759Z,49.11
2019-03-30T13:32:26.749Z,49.87
2019-03-30T13:34:56.569Z,50.22
2019-03-30T13:37:26.392Z,49.63
2019-03-30T13:39:56.360Z,50.36
2019-03-30T13:42:26.268Z,49.96
2019-03-30T13:44:56.086Z,49.98
2019-03-30T13:47:26.103Z,49.41
2019-03-30T13:49:55.992Z,49.43
2019-03-30T13:52:25.840Z,49.83
2019-03-30T13:54:55.848Z,49.52
2019-03-30T13:57:25.803Z,48.92
2019-03-30T13:59:55.671Z,50.30
2019-03-30T14:02:25.509Z,49.81
2019-03-30T14:04:55.384Z,51.12
2019-03-30T14:07:25.279Z,50.08
2019-03-30T14:09:55.061Z,49.97
2019-03-30T14:12:24.940Z,49.25
2019-03-30T14:14:54.912Z,49.87
2019-03-30T14:17:24.955Z,50.25
2019-03-30T14:19:55.039Z,50.86
2019-03-30T14:22:24.945Z,51.14
2019-03-30T14:24:54.843Z,50.27
2019-03-30T14:27:24.706Z,50.31
2019-03-30T14:29:54.633Z,51.59
2019-03-30T14:32:24.666Z,52.33
2019-03-30T14:34:54.577Z,52.37
2019-03-30T14:37:24.464Z,53.29
2019-03-30T14:39:54.444Z,54.00
2019-03-30T14:42:24.286Z,53.08
2019-03-30T14:44:54.150Z,55.07
2019-03-30T14:47:24.165Z,54.59
2019-03-30T14:49:54.417Z,54.82
2019-03-30T14:52:24.246Z,54.74
2019-03-30T14:54:54.302Z,54.25
2019-03-30T14:57:24.408Z,55.07
2019-03-30T14:59:54.186Z,54.76
2019-03-30T15:02:24.147Z,54.63
2019-03-30T15:04:54.171Z,54.90
2019-03-30T15:07:24.194Z,54.48
2019-03-30T15:09:54.181Z,55.92
2019-03-30T15:12:24.111Z,55.64
2019-03-30T15:14:53.932Z,55.94
2019-03-30T15:17:23.848Z,55.64
2019-03-30T15:19:53.774Z,56.04
2019-03-30T15:22:23.747Z,56.50
2019-03-30T15:24:53.814Z,57.45
2019-03-30T15:27:23.895Z,56.66
2019-03-30T15:29:53.782Z,56.50
2019-03-30T15:32:23.685Z,56.38
2019-03-30T15:34:53.503Z,57.05
2019-03-30T15:37:23.335Z,56.85
2019-03-30T15:39:53.256Z,56.98
2019-03-30T15:42:23.124Z,56.57
2019-03-30T15:44:53.004Z,55.90
2019-03-30T15:47:22.940Z,56.59
2019-03-30T15:49:52.834Z,56.33
2019-03-30T15:52:22.622Z,57.58
2019-03-30T15:54:52.714Z,56.22
2019-03-30T15:57:25.365Z,56.60
2019-03-30T15:59:54.441Z,56.85
2019-03-30T16:02:24.818Z,56.86
2019-03-30T16:04:54.721Z,57.25
2019-03-30T16:07:24.652Z,58.37
2019-03-30T16:09:54.529Z,57.70
2019-03-30T16:12:24.405Z,57.88
2019-03-30T16:14:54.511Z,58.22
2019-03-30T16:17:24.431Z,59.19
2019-03-30T16:19:54.453Z,60.05
2019-03-30T16:22:24.429Z,60.65
2019-03-30T16:24:54.443Z,60.99
2019-03-30T16:27:29.070Z,61.21
2019-03-30T16:29:58.660Z,61.45
2019-03-30T16:32:27.618Z,61.84
2019-03-30T16:34:57.786Z,62.64
2019-03-30T16:37:27.667Z,63.11
2019-03-30T16:39:57.581Z,63.74
2019-03-30T16:42:27.629Z,64.26
2019-03-30T16:44:57.530Z,64.47
2019-03-30T16:47:27.321Z,64.43
2019-03-30T16:49:57.319Z,64.81
2019-03-30T16:52:27.166Z,64.92
2019-03-30T16:54:57.042Z,65.21
2019-03-30T16:57:27.004Z,65.75
2019-03-30T16:59:56.906Z,65.67
2019-03-30T17:02:26.753Z,65.99
2019-03-30T17:04:56.774Z,66.28
2019-03-30T17:07:26.582Z,67.12
2019-03-30T17:09:56.406Z,67.54
2019-03-30T17:12:26.523Z,67.58
2019-03-30T17:14:56.378Z,67.63
2019-03-30T17:17:26.264Z,67.97
2019-03-30T17:19:56.332Z,68.50
2019-03-30T17:22:26.152Z,68.61
2019-03-30T17:24:56.018Z,68.66
2019-03-30T17:27:25.915Z,69.13
2019-03-30T17:29:55.740Z,69.41
2019-03-30T17:32:25.578Z,69.37
2019-03-30T17:34:55.740Z,69.97
2019-03-30T17:37:25.715Z,70.19
2019-03-30T17:39:55.557Z,70.32
2019-03-30T17:42:25.621Z,70.86
2019-03-30T17:44:55.436Z,71.14
2019-03-30T17:47:25.309Z,71.50
2019-03-30T17:49:55.328Z,71.65
2019-03-30T17:52:25.167Z,72.03
2019-03-30T17:54:55.044Z,71.68
2019-03-30T17:57:25.108Z,72.11
2019-03-30T17:59:54.991Z,72.31
2019-03-30T18:02:24.872Z,72.75
2019-03-30T18:04:55.092Z,73.14
2019-03-30T18:07:24.959Z,73.19
2019-03-30T18:09:54.813Z,73.21
2019-03-30T18:12:24.807Z,73.54
2019-03-30T18:14:54.677Z,73.86
2019-03-30T18:17:24.602Z,74.13
2019-03-30T18:19:54.644Z,74.33
2019-03-30T18:22:24.448Z,74.40
2019-03-30T18:24:54.313Z,74.96
2019-03-30T18:27:24.443Z,75.60
2019-03-30T18:29:54.322Z,75.77
2019-03-30T18:32:24.193Z,75.78
2019-03-30T18:34:54.494Z,76.06
2019-03-30T18:37:24.840Z,76.64
2019-03-30T18:39:55.286Z,76.91
2019-03-30T18:42:25.757Z,77.13
2019-03-30T18:44:57.060Z,77.44
2019-03-30T18:47:26.975Z,76.94
2019-03-30T18:49:56.882Z,76.59
2019-03-30T18:52:27.210Z,76.35
2019-03-30T18:54:57.356Z,76.57
2019-03-30T18:57:27.505Z,76.97
2019-03-30T18:59:57.487Z,76.87
2019-03-30T19:02:27.390Z,77.06
2019-03-30T19:04:57.415Z,77.31
2019-03-30T19:07:27.362Z,77.25
2019-03-30T19:09:57.269Z,77.49
2019-03-30T19:12:27.187Z,77.65
2019-03-30T19:14:57.153Z,77.61
2019-03-30T19:17:26.976Z,77.47
2019-03-30T19:19:56.818Z,77.93
2019-03-30T19:22:26.806Z,78.09
2019-03-30T19:24:56.863Z,78.19
2019-03-30T19:27:26.879Z,78.13
2019-03-30T19:29:56.890Z,78.13
2019-03-30T19:32:26.675Z,78.36
2019-03-30T19:34:56.594Z,78.68
2019-03-30T19:37:26.612Z,78.74
2019-03-30T19:39:56.431Z,79.02
2019-03-30T19:42:26.387Z,79.03
2019-03-30T19:44:56.518Z,79.01
2019-03-30T19:47:26.495Z,78.92
2019-03-30T19:49:56.473Z,79.25
2019-03-30T19:52:39.232Z,79.50
2019-03-30T19:54:58.182Z,79.83
2019-03-30T19:57:28.434Z,79.85
2019-03-30T19:59:58.252Z,79.72
2019-03-30T20:02:28.174Z,80.04
2019-03-30T20:04:58.203Z,80.21
2019-03-30T20:07:28.149Z,80.44
2019-03-30T20:09:58.043Z,80.01
2019-03-30T20:12:28.442Z,80.25
2019-03-30T20:14:58.329Z,80.47
2019-03-30T20:17:28.208Z,80.52
2019-03-30T20:19:58.292Z,80.23
2019-03-30T20:22:28.143Z,79.36
2019-03-30T20:24:58.233Z,78.83
2019-03-30T20:27:28.351Z,78.58
2019-03-30T20:29:58.193Z,77.96
2019-03-30T20:32:28.026Z,78.03
2019-03-30T20:34:58.048Z,77.97
2019-03-30T20:37:27.958Z,77.97
2019-03-30T20:39:57.824Z,77.70
2019-03-30T20:42:27.831Z,77.43
2019-03-30T20:44:57.656Z,77.54
2019-03-30T20:47:27.540Z,77.53
2019-03-30T20:49:57.574Z,77.87
2019-03-30T20:52:27.429Z,78.32
2019-03-30T20:54:57.365Z,78.06
2019-03-30T20:57:27.772Z,76.40
2019-03-30T20:59:57.851Z,76.15
2019-03-30T21:02:27.696Z,75.91
2019-03-30T21:04:57.724Z,74.85
2019-03-30T21:07:27.571Z,75.31
2019-03-30T21:09:57.462Z,75.20
2019-03-30T21:12:27.588Z,74.80
2019-03-30T21:14:57.464Z,75.21
2019-03-30T21:17:27.363Z,75.00
2019-03-30T21:19:57.545Z,74.83
2019-03-30T21:22:27.416Z,74.61
2019-03-30T21:24:57.445Z,74.67
2019-03-30T21:27:27.448Z,74.48
2019-03-30T21:29:57.272Z,74.69
2019-03-30T21:32:27.201Z,74.88
2019-03-30T21:34:57.506Z,75.19
2019-03-30T21:37:27.316Z,75.18
2019-03-30T21:39:57.173Z,75.72
2019-03-30T21:42:27.397Z,75.52
2019-03-30T21:44:57.267Z,75.08
2019-03-30T21:47:27.137Z,75.81
2019-03-30T21:49:57.322Z,75.77
2019-03-30T21:52:27.158Z,75.89
2019-03-30T21:54:58.099Z,76.17
2019-03-30T21:57:28.211Z,76.17
2019-03-30T22:00:09.277Z,76.45
2019-03-30T22:02:30.004Z,76.59
2019-03-30T22:04:59.906Z,76.80
2019-03-30T22:07:29.884Z,77.00
2019-03-30T22:10:00.360Z,77.03
2019-03-30T22:12:30.274Z,77.35
2019-03-30T22:15:00.141Z,76.86
2019-03-30T22:17:30.221Z,77.27
2019-03-30T22:20:00.448Z,76.86
2019-03-30T22:22:30.390Z,76.92
2019-03-30T22:25:00.415Z,77.13
2019-03-30T22:27:30.460Z,77.27
2019-03-30T22:30:00.422Z,77.41
2019-03-30T22:32:30.515Z,77.34
2019-03-30T22:35:00.381Z,77.90
2019-03-30T22:37:30.251Z,78.32
2019-03-30T22:40:00.219Z,78.09
2019-03-30T22:42:30.389Z,77.66
2019-03-30T22:45:00.348Z,77.28
2019-03-30T22:47:30.424Z,77.26
2019-03-30T22:50:00.512Z,77.80
2019-03-30T22:52:30.289Z,77.69
2019-03-30T22:55:00.463Z,77.16
2019-03-30T22:57:30.390Z,76.58
2019-03-30T23:00:01.369Z,76.33
2019-03-30T23:02:31.246Z,76.15
2019-03-30T23:05:01.134Z,75.59
2019-03-30T23:07:31.204Z,75.88
2019-03-30T23:10:01.111Z,73.78
2019-03-30T23:12:30.994Z,72.98
2019-03-30T23:15:01.005Z,73.36
2019-03-30T23:17:30.890Z,72.22
2019-03-30T23:20:00.762Z,71.98
2019-03-30T23:22:30.556Z,71.55
2019-03-30T23:25:00.413Z,71.60
2019-03-30T23:27:30.368Z,71.32
2019-03-30T23:30:00.595Z,71.59
2019-03-30T23:32:30.410Z,71.14
2019-03-30T23:35:00.596Z,70.83
2019-03-30T23:37:30.541Z,71.08
2019-03-30T23:40:00.482Z,70.71
2019-03-30T23:42:30.350Z,70.68
2019-03-30T23:45:00.360Z,71.43
2019-03-30T23:47:30.103Z,71.79
2019-03-30T23:50:00.015Z,71.36
2019-03-30T23:52:29.961Z,72.01
2019-03-30T23:54:59.802Z,72.33
2019-03-30T23:57:29.711Z,72.86
2019-03-30T23:59:59.638Z,70.52
